De Xin Hai — BQBP — position and weather

sailwx.info

Track history (hours):
 
Tides and Currents Weather Stations Pressure Air Temp Water Temp Dewpoint Dewpoint Depression Visibility Wind Speed Wind Dir Waves Ship Positions

De Xin Hai

Last reported at 2016-Jun-23 21:09 UTC. Time now 2016-Jul-02 07:42 UTC.
Position N 35°07' W 008°36'.
Warning: this ship's position is 8 days out of date.

Length 225 m; draft 6.9 m.

Type: Cargo ship. MMSI: 367344200.

Date/timePositionNaut miles runAvg speedWind from/ knotsBaromVisibWave heightAir tempDewpointWater temp
2016-Jun-23 21:09N 35°07' W 008°36'2012.7
2016-Jun-23 19:33N 35°18' W 008°16'1312.7
2016-Jun-23 18:33N 35°25' W 008°02'1312.7
2016-Jun-23 17:33N 35°32' W 007°49'1212.5
2016-Jun-23 16:33N 35°39' W 007°37'1212.3
2016-Jun-23 15:33N 35°45' W 007°24'1312.6
2016-Jun-23 14:31N 35°52' W 007°10'1312.7
2016-Jun-23 13:30N 35°58' W 006°56'6512.4
2016-Jun-23 08:14N 35°58' W 005°35'710.1
2016-Jun-23 07:33N 36°00' W 005°28'8 3.9
2016-Jun-23 05:32N 36°06' W 005°22'0 0.0
2016-Jun-23 04:32N 36°07' W 005°22'0 0.2
2016-Jun-23 03:32N 36°06' W 005°22'0 0.2
2016-Jun-23 02:29N 36°06' W 005°22'0 0.1
2016-Jun-23 01:32N 36°06' W 005°22'0 0.0
2016-Jun-23 00:29N 36°06' W 005°22'0 0.1
2016-Jun-22 23:32N 36°06' W 005°22'0 0.0
2016-Jun-22 22:32N 36°06' W 005°22'0 0.1
2016-Jun-22 21:32N 36°06' W 005°22'0 0.0
2016-Jun-22 20:32N 36°06' W 005°22'0 0.1
2016-Jun-22 19:32N 36°06' W 005°22'2 1.7
2016-Jun-22 18:33N 36°05' W 005°21'2 1.9
2016-Jun-22 17:33N 36°05' W 005°18'1 1.0
2016-Jun-22 16:33N 36°05' W 005°17'24011.4
2016-Jun-21 19:33N 36°40' W 000°22'1312.5
2016-Jun-21 18:30N 36°42' W 000°06'1212.5
2016-Jun-21 17:31N 36°44' E 000°09'1313.0
2016-Jun-21 16:31N 36°46' E 000°25'  
2016-Jun-19 08:33N 36°47' E 012°49'1111.2
2016-Jun-19 07:33N 36°43' E 013°02'1111.3
2016-Jun-19 06:33N 36°39' E 013°14'1111.3
2016-Jun-19 05:33N 36°34' E 013°27'1211.9
2016-Jun-19 04:33N 36°29' E 013°41'1312.6
2016-Jun-19 03:33N 36°24' E 013°55'1212.1
2016-Jun-19 02:33N 36°19' E 014°09'1212.0
2016-Jun-19 01:33N 36°14' E 014°22'1211.9
2016-Jun-19 00:33N 36°09' E 014°36'1211.9
2016-Jun-18 23:33N 36°04' E 014°49'1312.0
2016-Jun-18 22:30N 35°59' E 015°04'1212.2
2016-Jun-18 21:33N 35°55' E 015°17'1212.4
2016-Jun-18 20:33N 35°52' E 015°32'1312.6
2016-Jun-18 19:33N 35°50' E 015°47'  
2016-Jun-15 23:12N 31°54' E 031°41'  
Track history (hours):
 
Tides and Currents Weather Stations Pressure Air Temp Water Temp Dewpoint Dewpoint Depression Visibility Wind Speed Wind Dir Waves Ship Positions

De Xin Hai

Last reported at 2016-Jun-23 21:09 UTC. Time now 2016-Jul-02 07:42 UTC.
Position N 35°07' W 008°36'.
Warning: this ship's position is 8 days out of date.

Length 225 m; draft 6.9 m.

Type: Cargo ship. MMSI: 367344200.

Date/timePositionNaut miles runAvg speedWind from/ knotsBaromVisibWave heightAir tempDewpointWater temp
2016-Jun-23 21:09N 35°07' W 008°36'2012.7
2016-Jun-23 19:33N 35°18' W 008°16'1312.7
2016-Jun-23 18:33N 35°25' W 008°02'1312.7
2016-Jun-23 17:33N 35°32' W 007°49'1212.5
2016-Jun-23 16:33N 35°39' W 007°37'1212.3
2016-Jun-23 15:33N 35°45' W 007°24'1312.6
2016-Jun-23 14:31N 35°52' W 007°10'1312.7
2016-Jun-23 13:30N 35°58' W 006°56'6512.4
2016-Jun-23 08:14N 35°58' W 005°35'710.1
2016-Jun-23 07:33N 36°00' W 005°28'8 3.9
2016-Jun-23 05:32N 36°06' W 005°22'0 0.0
2016-Jun-23 04:32N 36°07' W 005°22'0 0.2
2016-Jun-23 03:32N 36°06' W 005°22'0 0.2
2016-Jun-23 02:29N 36°06' W 005°22'0 0.1
2016-Jun-23 01:32N 36°06' W 005°22'0 0.0
2016-Jun-23 00:29N 36°06' W 005°22'0 0.1
2016-Jun-22 23:32N 36°06' W 005°22'0 0.0
2016-Jun-22 22:32N 36°06' W 005°22'0 0.1
2016-Jun-22 21:32N 36°06' W 005°22'0 0.0
2016-Jun-22 20:32N 36°06' W 005°22'0 0.1
2016-Jun-22 19:32N 36°06' W 005°22'2 1.7
2016-Jun-22 18:33N 36°05' W 005°21'2 1.9
2016-Jun-22 17:33N 36°05' W 005°18'1 1.0
2016-Jun-22 16:33N 36°05' W 005°17'24011.4
2016-Jun-21 19:33N 36°40' W 000°22'1312.5
2016-Jun-21 18:30N 36°42' W 000°06'1212.5
2016-Jun-21 17:31N 36°44' E 000°09'1313.0
2016-Jun-21 16:31N 36°46' E 000°25'  
2016-Jun-19 08:33N 36°47' E 012°49'1111.2
2016-Jun-19 07:33N 36°43' E 013°02'1111.3
2016-Jun-19 06:33N 36°39' E 013°14'1111.3
2016-Jun-19 05:33N 36°34' E 013°27'1211.9
2016-Jun-19 04:33N 36°29' E 013°41'1312.6
2016-Jun-19 03:33N 36°24' E 013°55'1212.1
2016-Jun-19 02:33N 36°19' E 014°09'1212.0
2016-Jun-19 01:33N 36°14' E 014°22'1211.9
2016-Jun-19 00:33N 36°09' E 014°36'1211.9
2016-Jun-18 23:33N 36°04' E 014°49'1312.0
2016-Jun-18 22:30N 35°59' E 015°04'1212.2
2016-Jun-18 21:33N 35°55' E 015°17'1212.4
2016-Jun-18 20:33N 35°52' E 015°32'1312.6
2016-Jun-18 19:33N 35°50' E 015°47'  
2016-Jun-15 23:12N 31°54' E 031°41'  

Dump ship's entire track history